sensor_id;sensor_type;location;lat;lon;timestamp;P1;durP1;ratioP1;P2;durP2;ratioP2
8279;SDS011;8335;42.646;23.380;2022-12-20T00:02:23;17.93;;;8.93;;
8279;SDS011;8335;42.646;23.380;2022-12-20T00:04:49;17.43;;;9.47;;
8279;SDS011;8335;42.646;23.380;2022-12-20T00:07:16;16.47;;;8.27;;
8279;SDS011;8335;42.646;23.380;2022-12-20T00:09:43;18.30;;;8.77;;
8279;SDS011;8335;42.646;23.380;2022-12-20T00:12:10;14.97;;;8.57;;
8279;SDS011;8335;42.646;23.380;2022-12-20T00:14:38;13.67;;;8.37;;
8279;SDS011;8335;42.646;23.380;2022-12-20T00:17:04;12.23;;;8.00;;
8279;SDS011;8335;42.646;23.380;2022-12-20T00:19:31;15.07;;;8.00;;
8279;SDS011;8335;42.646;23.380;2022-12-20T00:21:58;15.27;;;9.27;;
8279;SDS011;8335;42.646;23.380;2022-12-20T00:24:25;15.73;;;8.37;;
8279;SDS011;8335;42.646;23.380;2022-12-20T00:26:51;17.83;;;7.90;;
8279;SDS011;8335;42.646;23.380;2022-12-20T00:29:18;22.67;;;8.53;;
8279;SDS011;8335;42.646;23.380;2022-12-20T00:31:46;14.57;;;8.10;;
8279;SDS011;8335;42.646;23.380;2022-12-20T00:34:13;16.80;;;7.57;;
8279;SDS011;8335;42.646;23.380;2022-12-20T00:36:40;14.20;;;7.77;;
8279;SDS011;8335;42.646;23.380;2022-12-20T00:39:06;16.37;;;7.97;;
8279;SDS011;8335;42.646;23.380;2022-12-20T00:41:34;15.77;;;7.50;;
8279;SDS011;8335;42.646;23.380;2022-12-20T00:44:01;15.20;;;8.30;;
8279;SDS011;8335;42.646;23.380;2022-12-20T00:46:29;13.20;;;7.47;;
8279;SDS011;8335;42.646;23.380;2022-12-20T00:48:58;15.47;;;8.00;;
8279;SDS011;8335;42.646;23.380;2022-12-20T00:51:25;13.97;;;7.47;;
8279;SDS011;8335;42.646;23.380;2022-12-20T00:53:54;14.67;;;7.47;;
8279;SDS011;8335;42.646;23.380;2022-12-20T00:56:21;17.17;;;8.20;;
8279;SDS011;8335;42.646;23.380;2022-12-20T00:58:48;18.07;;;7.43;;
8279;SDS011;8335;42.646;23.380;2022-12-20T01:01:17;14.53;;;7.50;;
8279;SDS011;8335;42.646;23.380;2022-12-20T01:03:46;17.63;;;7.90;;
8279;SDS011;8335;42.646;23.380;2022-12-20T01:06:14;13.97;;;7.67;;
8279;SDS011;8335;42.646;23.380;2022-12-20T01:08:42;14.73;;;7.93;;
8279;SDS011;8335;42.646;23.380;2022-12-20T01:11:10;16.07;;;7.47;;
8279;SDS011;8335;42.646;23.380;2022-12-20T01:13:40;12.53;;;7.03;;
8279;SDS011;8335;42.646;23.380;2022-12-20T01:16:10;13.53;;;6.70;;
8279;SDS011;8335;42.646;23.380;2022-12-20T01:18:38;14.37;;;7.60;;
8279;SDS011;8335;42.646;23.380;2022-12-20T01:21:06;14.00;;;7.47;;
8279;SDS011;8335;42.646;23.380;2022-12-20T01:23:35;15.90;;;8.37;;
8279;SDS011;8335;42.646;23.380;2022-12-20T01:26:03;20.80;;;7.60;;
8279;SDS011;8335;42.646;23.380;2022-12-20T01:28:33;16.17;;;8.00;;
8279;SDS011;8335;42.646;23.380;2022-12-20T01:31:01;12.53;;;7.63;;
8279;SDS011;8335;42.646;23.380;2022-12-20T01:33:27;12.00;;;6.50;;
8279;SDS011;8335;42.646;23.380;2022-12-20T01:35:55;12.27;;;7.40;;
8279;SDS011;8335;42.646;23.380;2022-12-20T01:38:22;13.17;;;6.97;;
8279;SDS011;8335;42.646;23.380;2022-12-20T01:40:51;10.73;;;6.43;;
8279;SDS011;8335;42.646;23.380;2022-12-20T01:43:19;12.30;;;7.03;;
8279;SDS011;8335;42.646;23.380;2022-12-20T01:45:47;12.10;;;6.90;;
8279;SDS011;8335;42.646;23.380;2022-12-20T01:48:15;13.00;;;6.90;;
8279;SDS011;8335;42.646;23.380;2022-12-20T01:50:46;11.93;;;7.10;;
8279;SDS011;8335;42.646;23.380;2022-12-20T01:53:14;14.50;;;7.63;;
8279;SDS011;8335;42.646;23.380;2022-12-20T01:55:43;14.40;;;7.17;;
8279;SDS011;8335;42.646;23.380;2022-12-20T01:58:13;12.17;;;6.97;;
8279;SDS011;8335;42.646;23.380;2022-12-20T02:00:43;14.17;;;7.23;;
8279;SDS011;8335;42.646;23.380;2022-12-20T02:03:10;12.93;;;7.27;;
8279;SDS011;8335;42.646;23.380;2022-12-20T02:05:40;13.90;;;7.60;;
8279;SDS011;8335;42.646;23.380;2022-12-20T02:08:09;13.27;;;7.07;;
8279;SDS011;8335;42.646;23.380;2022-12-20T02:10:42;14.60;;;7.83;;
8279;SDS011;8335;42.646;23.380;2022-12-20T02:13:25;13.33;;;7.47;;
8279;SDS011;8335;42.646;23.380;2022-12-20T02:16:02;12.97;;;7.27;;
8279;SDS011;8335;42.646;23.380;2022-12-20T02:18:31;16.67;;;7.27;;
8279;SDS011;8335;42.646;23.380;2022-12-20T02:21:21;13.53;;;7.23;;
8279;SDS011;8335;42.646;23.380;2022-12-20T02:24:01;14.30;;;7.03;;
8279;SDS011;8335;42.646;23.380;2022-12-20T02:27:16;13.30;;;7.30;;
8279;SDS011;8335;42.646;23.380;2022-12-20T02:30:10;14.30;;;7.83;;
8279;SDS011;8335;42.646;23.380;2022-12-20T02:32:40;13.87;;;7.87;;
8279;SDS011;8335;42.646;23.380;2022-12-20T02:35:13;12.40;;;7.13;;
8279;SDS011;8335;42.646;23.380;2022-12-20T02:37:46;12.87;;;6.67;;
8279;SDS011;8335;42.646;23.380;2022-12-20T02:40:14;15.03;;;8.60;;
8279;SDS011;8335;42.646;23.380;2022-12-20T02:42:45;14.33;;;7.90;;
8279;SDS011;8335;42.646;23.380;2022-12-20T02:45:15;15.07;;;8.17;;
8279;SDS011;8335;42.646;23.380;2022-12-20T02:47:47;18.10;;;9.20;;
8279;SDS011;8335;42.646;23.380;2022-12-20T02:50:19;15.10;;;8.40;;
8279;SDS011;8335;42.646;23.380;2022-12-20T02:52:48;15.30;;;8.63;;
8279;SDS011;8335;42.646;23.380;2022-12-20T02:55:16;15.17;;;8.20;;
8279;SDS011;8335;42.646;23.380;2022-12-20T02:57:47;14.47;;;8.17;;
8279;SDS011;8335;42.646;23.380;2022-12-20T03:00:21;15.67;;;8.40;;
8279;SDS011;8335;42.646;23.380;2022-12-20T03:02:48;13.43;;;7.60;;
8279;SDS011;8335;42.646;23.380;2022-12-20T03:05:35;15.40;;;8.73;;
8279;SDS011;8335;42.646;23.380;2022-12-20T03:08:09;14.83;;;8.27;;
8279;SDS011;8335;42.646;23.380;2022-12-20T03:10:35;15.40;;;8.57;;
8279;SDS011;8335;42.646;23.380;2022-12-20T03:13:02;18.90;;;8.87;;
8279;SDS011;8335;42.646;23.380;2022-12-20T03:15:31;15.53;;;9.33;;
8279;SDS011;8335;42.646;23.380;2022-12-20T03:17:58;16.80;;;9.73;;
8279;SDS011;8335;42.646;23.380;2022-12-20T03:20:24;16.80;;;9.23;;
8279;SDS011;8335;42.646;23.380;2022-12-20T03:22:51;18.13;;;10.50;;
8279;SDS011;8335;42.646;23.380;2022-12-20T03:25:18;22.20;;;11.20;;
8279;SDS011;8335;42.646;23.380;2022-12-20T03:27:45;18.47;;;9.83;;
8279;SDS011;8335;42.646;23.380;2022-12-20T03:30:12;17.83;;;9.13;;
8279;SDS011;8335;42.646;23.380;2022-12-20T03:32:41;19.90;;;10.77;;
8279;SDS011;8335;42.646;23.380;2022-12-20T03:35:08;16.87;;;9.87;;
8279;SDS011;8335;42.646;23.380;2022-12-20T03:37:35;26.93;;;11.67;;
8279;SDS011;8335;42.646;23.380;2022-12-20T03:40:02;18.13;;;9.83;;
8279;SDS011;8335;42.646;23.380;2022-12-20T03:42:29;25.47;;;11.53;;
8279;SDS011;8335;42.646;23.380;2022-12-20T03:44:56;20.23;;;11.03;;
8279;SDS011;8335;42.646;23.380;2022-12-20T03:47:23;18.77;;;10.67;;
8279;SDS011;8335;42.646;23.380;2022-12-20T03:49:51;20.17;;;10.83;;
8279;SDS011;8335;42.646;23.380;2022-12-20T03:52:17;20.70;;;10.30;;
8279;SDS011;8335;42.646;23.380;2022-12-20T03:54:44;19.00;;;10.93;;
8279;SDS011;8335;42.646;23.380;2022-12-20T03:57:11;22.07;;;11.37;;
8279;SDS011;8335;42.646;23.380;2022-12-20T03:59:38;22.43;;;12.03;;
8279;SDS011;8335;42.646;23.380;2022-12-20T04:02:05;21.07;;;11.03;;
8279;SDS011;8335;42.646;23.380;2022-12-20T04:04:31;17.90;;;10.30;;
8279;SDS011;8335;42.646;23.380;2022-12-20T04:06:59;21.93;;;10.50;;
8279;SDS011;8335;42.646;23.380;2022-12-20T04:09:26;17.67;;;10.20;;
8279;SDS011;8335;42.646;23.380;2022-12-20T04:11:53;17.73;;;10.97;;
8279;SDS011;8335;42.646;23.380;2022-12-20T04:14:20;20.67;;;10.33;;
8279;SDS011;8335;42.646;23.380;2022-12-20T04:16:46;18.23;;;10.87;;
8279;SDS011;8335;42.646;23.380;2022-12-20T04:19:14;18.13;;;11.03;;
8279;SDS011;8335;42.646;23.380;2022-12-20T04:21:41;22.50;;;11.53;;
8279;SDS011;8335;42.646;23.380;2022-12-20T04:24:09;18.13;;;10.37;;
8279;SDS011;8335;42.646;23.380;2022-12-20T04:26:36;19.43;;;10.87;;
8279;SDS011;8335;42.646;23.380;2022-12-20T04:29:03;17.43;;;10.50;;
8279;SDS011;8335;42.646;23.380;2022-12-20T04:31:30;22.00;;;11.10;;
8279;SDS011;8335;42.646;23.380;2022-12-20T04:33:56;20.57;;;10.80;;
8279;SDS011;8335;42.646;23.380;2022-12-20T04:36:23;22.80;;;11.73;;
8279;SDS011;8335;42.646;23.380;2022-12-20T04:38:50;18.60;;;10.83;;
8279;SDS011;8335;42.646;23.380;2022-12-20T04:41:19;24.10;;;12.23;;
8279;SDS011;8335;42.646;23.380;2022-12-20T04:43:51;26.70;;;11.70;;
8279;SDS011;8335;42.646;23.380;2022-12-20T04:46:19;19.40;;;11.50;;
8279;SDS011;8335;42.646;23.380;2022-12-20T04:48:47;24.80;;;11.40;;
8279;SDS011;8335;42.646;23.380;2022-12-20T04:51:13;20.47;;;10.47;;
8279;SDS011;8335;42.646;23.380;2022-12-20T04:53:40;19.93;;;10.77;;
8279;SDS011;8335;42.646;23.380;2022-12-20T04:56:13;19.97;;;11.90;;
8279;SDS011;8335;42.646;23.380;2022-12-20T04:58:42;22.13;;;11.33;;
8279;SDS011;8335;42.646;23.380;2022-12-20T05:01:09;22.17;;;11.40;;
8279;SDS011;8335;42.646;23.380;2022-12-20T05:03:36;21.50;;;11.70;;
8279;SDS011;8335;42.646;23.380;2022-12-20T05:06:03;22.43;;;12.13;;
8279;SDS011;8335;42.646;23.380;2022-12-20T05:08:30;22.70;;;12.23;;
8279;SDS011;8335;42.646;23.380;2022-12-20T05:10:57;26.67;;;12.57;;
8279;SDS011;8335;42.646;23.380;2022-12-20T05:13:24;25.30;;;12.47;;
8279;SDS011;8335;42.646;23.380;2022-12-20T05:15:52;24.77;;;11.80;;
8279;SDS011;8335;42.646;23.380;2022-12-20T05:18:20;24.80;;;11.83;;
8279;SDS011;8335;42.646;23.380;2022-12-20T05:20:47;19.17;;;11.17;;
8279;SDS011;8335;42.646;23.380;2022-12-20T05:23:34;21.97;;;12.13;;
8279;SDS011;8335;42.646;23.380;2022-12-20T05:26:19;22.50;;;11.17;;
8279;SDS011;8335;42.646;23.380;2022-12-20T05:28:46;24.80;;;12.20;;
8279;SDS011;8335;42.646;23.380;2022-12-20T05:31:14;21.57;;;12.20;;
8279;SDS011;8335;42.646;23.380;2022-12-20T05:33:41;23.30;;;11.83;;
8279;SDS011;8335;42.646;23.380;2022-12-20T05:36:08;20.90;;;12.73;;
8279;SDS011;8335;42.646;23.380;2022-12-20T05:38:34;23.20;;;11.83;;
8279;SDS011;8335;42.646;23.380;2022-12-20T05:41:01;21.37;;;12.20;;
8279;SDS011;8335;42.646;23.380;2022-12-20T05:43:30;19.57;;;11.80;;
8279;SDS011;8335;42.646;23.380;2022-12-20T05:45:58;21.23;;;12.30;;
8279;SDS011;8335;42.646;23.380;2022-12-20T05:48:26;24.07;;;12.00;;
8279;SDS011;8335;42.646;23.380;2022-12-20T05:50:53;25.33;;;13.23;;
8279;SDS011;8335;42.646;23.380;2022-12-20T05:53:20;22.80;;;12.27;;
8279;SDS011;8335;42.646;23.380;2022-12-20T05:55:47;28.10;;;11.87;;
8279;SDS011;8335;42.646;23.380;2022-12-20T05:58:15;28.20;;;12.97;;
8279;SDS011;8335;42.646;23.380;2022-12-20T06:00:43;25.10;;;13.50;;
8279;SDS011;8335;42.646;23.380;2022-12-20T06:03:11;25.43;;;12.97;;
8279;SDS011;8335;42.646;23.380;2022-12-20T06:05:40;21.43;;;12.30;;
8279;SDS011;8335;42.646;23.380;2022-12-20T06:08:08;22.03;;;11.77;;
8279;SDS011;8335;42.646;23.380;2022-12-20T06:10:35;21.90;;;12.13;;
8279;SDS011;8335;42.646;23.380;2022-12-20T06:13:02;22.90;;;12.67;;
8279;SDS011;8335;42.646;23.380;2022-12-20T06:15:29;20.50;;;11.40;;
8279;SDS011;8335;42.646;23.380;2022-12-20T06:17:56;26.87;;;13.07;;
8279;SDS011;8335;42.646;23.380;2022-12-20T06:20:23;21.80;;;13.43;;
8279;SDS011;8335;42.646;23.380;2022-12-20T06:22:51;21.87;;;12.37;;
8279;SDS011;8335;42.646;23.380;2022-12-20T06:25:18;29.57;;;14.03;;
8279;SDS011;8335;42.646;23.380;2022-12-20T06:27:45;27.00;;;13.23;;
8279;SDS011;8335;42.646;23.380;2022-12-20T06:30:12;22.47;;;12.03;;
8279;SDS011;8335;42.646;23.380;2022-12-20T06:32:39;25.47;;;11.40;;
8279;SDS011;8335;42.646;23.380;2022-12-20T06:35:06;26.40;;;12.00;;
8279;SDS011;8335;42.646;23.380;2022-12-20T06:37:34;21.90;;;11.73;;
8279;SDS011;8335;42.646;23.380;2022-12-20T06:40:03;20.83;;;11.83;;
8279;SDS011;8335;42.646;23.380;2022-12-20T06:42:30;20.83;;;11.70;;
8279;SDS011;8335;42.646;23.380;2022-12-20T06:44:57;24.97;;;11.90;;
8279;SDS011;8335;42.646;23.380;2022-12-20T06:47:23;24.37;;;11.17;;
8279;SDS011;8335;42.646;23.380;2022-12-20T06:49:50;22.13;;;11.40;;
8279;SDS011;8335;42.646;23.380;2022-12-20T06:52:17;17.53;;;10.10;;
8279;SDS011;8335;42.646;23.380;2022-12-20T06:54:44;16.67;;;9.20;;
8279;SDS011;8335;42.646;23.380;2022-12-20T06:57:12;19.67;;;10.43;;
8279;SDS011;8335;42.646;23.380;2022-12-20T06:59:39;22.33;;;11.23;;
8279;SDS011;8335;42.646;23.380;2022-12-20T07:02:05;19.33;;;10.50;;
8279;SDS011;8335;42.646;23.380;2022-12-20T07:04:32;24.50;;;11.40;;
8279;SDS011;8335;42.646;23.380;2022-12-20T07:06:59;20.37;;;10.70;;
8279;SDS011;8335;42.646;23.380;2022-12-20T07:09:26;20.50;;;11.00;;
8279;SDS011;8335;42.646;23.380;2022-12-20T07:11:52;18.40;;;11.47;;
8279;SDS011;8335;42.646;23.380;2022-12-20T07:14:20;18.80;;;10.43;;
8279;SDS011;8335;42.646;23.380;2022-12-20T07:16:47;19.57;;;11.07;;
8279;SDS011;8335;42.646;23.380;2022-12-20T07:19:14;28.60;;;11.77;;
8279;SDS011;8335;42.646;23.380;2022-12-20T07:21:41;19.33;;;11.70;;
8279;SDS011;8335;42.646;23.380;2022-12-20T07:24:08;20.00;;;11.23;;
8279;SDS011;8335;42.646;23.380;2022-12-20T07:26:35;23.30;;;12.00;;
8279;SDS011;8335;42.646;23.380;2022-12-20T07:29:02;17.30;;;11.13;;
8279;SDS011;8335;42.646;23.380;2022-12-20T07:31:31;17.67;;;10.97;;
8279;SDS011;8335;42.646;23.380;2022-12-20T07:33:58;15.90;;;10.40;;
8279;SDS011;8335;42.646;23.380;2022-12-20T07:36:25;19.00;;;9.67;;
8279;SDS011;8335;42.646;23.380;2022-12-20T07:38:51;17.20;;;10.43;;
8279;SDS011;8335;42.646;23.380;2022-12-20T07:41:18;15.30;;;8.60;;
8279;SDS011;8335;42.646;23.380;2022-12-20T07:43:45;14.03;;;7.60;;
8279;SDS011;8335;42.646;23.380;2022-12-20T07:46:12;14.23;;;7.70;;
8279;SDS011;8335;42.646;23.380;2022-12-20T07:48:41;11.47;;;7.53;;
8279;SDS011;8335;42.646;23.380;2022-12-20T07:51:09;16.63;;;7.53;;
8279;SDS011;8335;42.646;23.380;2022-12-20T07:53:40;14.30;;;8.20;;
8279;SDS011;8335;42.646;23.380;2022-12-20T07:56:10;12.77;;;7.00;;
8279;SDS011;8335;42.646;23.380;2022-12-20T07:58:38;11.17;;;7.40;;
8279;SDS011;8335;42.646;23.380;2022-12-20T08:01:07;19.07;;;7.73;;
8279;SDS011;8335;42.646;23.380;2022-12-20T08:03:35;17.47;;;8.50;;
8279;SDS011;8335;42.646;23.380;2022-12-20T08:06:06;22.53;;;9.10;;
8279;SDS011;8335;42.646;23.380;2022-12-20T08:08:34;17.20;;;8.67;;
8279;SDS011;8335;42.646;23.380;2022-12-20T08:11:04;20.07;;;10.07;;
8279;SDS011;8335;42.646;23.380;2022-12-20T08:13:34;15.27;;;8.10;;
8279;SDS011;8335;42.646;23.380;2022-12-20T08:16:01;14.83;;;8.67;;
8279;SDS011;8335;42.646;23.380;2022-12-20T08:18:27;14.63;;;7.47;;
8279;SDS011;8335;42.646;23.380;2022-12-20T08:20:54;15.03;;;8.50;;
8279;SDS011;8335;42.646;23.380;2022-12-20T08:23:23;14.23;;;8.43;;
8279;SDS011;8335;42.646;23.380;2022-12-20T08:25:49;16.23;;;8.57;;
8279;SDS011;8335;42.646;23.380;2022-12-20T08:28:16;19.23;;;7.67;;
8279;SDS011;8335;42.646;23.380;2022-12-20T08:30:43;12.43;;;7.80;;
8279;SDS011;8335;42.646;23.380;2022-12-20T08:33:10;15.13;;;8.37;;
8279;SDS011;8335;42.646;23.380;2022-12-20T08:35:37;19.67;;;7.90;;
8279;SDS011;8335;42.646;23.380;2022-12-20T08:38:04;14.27;;;7.90;;
8279;SDS011;8335;42.646;23.380;2022-12-20T08:40:32;12.83;;;7.43;;
8279;SDS011;8335;42.646;23.380;2022-12-20T08:42:59;14.13;;;7.70;;
8279;SDS011;8335;42.646;23.380;2022-12-20T08:45:26;15.60;;;7.47;;
8279;SDS011;8335;42.646;23.380;2022-12-20T08:47:53;18.30;;;8.53;;
8279;SDS011;8335;42.646;23.380;2022-12-20T08:50:20;13.40;;;8.03;;
8279;SDS011;8335;42.646;23.380;2022-12-20T08:52:46;18.23;;;8.23;;
8279;SDS011;8335;42.646;23.380;2022-12-20T08:55:13;11.93;;;6.97;;
8279;SDS011;8335;42.646;23.380;2022-12-20T08:57:41;15.07;;;8.10;;
8279;SDS011;8335;42.646;23.380;2022-12-20T09:00:08;14.37;;;7.63;;
8279;SDS011;8335;42.646;23.380;2022-12-20T09:02:36;13.37;;;7.40;;
8279;SDS011;8335;42.646;23.380;2022-12-20T09:05:05;16.37;;;8.40;;
8279;SDS011;8335;42.646;23.380;2022-12-20T09:07:32;14.07;;;7.30;;
8279;SDS011;8335;42.646;23.380;2022-12-20T09:09:59;12.27;;;7.50;;
8279;SDS011;8335;42.646;23.380;2022-12-20T09:12:28;10.87;;;7.30;;
8279;SDS011;8335;42.646;23.380;2022-12-20T09:14:56;13.30;;;7.03;;
8279;SDS011;8335;42.646;23.380;2022-12-20T09:17:23;10.17;;;6.90;;
8279;SDS011;8335;42.646;23.380;2022-12-20T09:19:50;13.10;;;7.23;;
8279;SDS011;8335;42.646;23.380;2022-12-20T09:22:17;11.80;;;6.93;;
8279;SDS011;8335;42.646;23.380;2022-12-20T09:24:46;12.07;;;7.33;;
8279;SDS011;8335;42.646;23.380;2022-12-20T09:27:14;10.63;;;6.77;;
8279;SDS011;8335;42.646;23.380;2022-12-20T09:29:40;11.07;;;6.97;;
8279;SDS011;8335;42.646;23.380;2022-12-20T09:32:09;11.23;;;6.90;;
8279;SDS011;8335;42.646;23.380;2022-12-20T09:34:36;12.80;;;7.17;;
8279;SDS011;8335;42.646;23.380;2022-12-20T09:37:03;15.27;;;7.47;;
8279;SDS011;8335;42.646;23.380;2022-12-20T09:39:30;11.17;;;6.93;;
8279;SDS011;8335;42.646;23.380;2022-12-20T09:41:57;14.33;;;8.20;;
8279;SDS011;8335;42.646;23.380;2022-12-20T09:44:25;10.63;;;6.73;;
8279;SDS011;8335;42.646;23.380;2022-12-20T09:46:56;11.40;;;6.70;;
8279;SDS011;8335;42.646;23.380;2022-12-20T09:49:28;13.93;;;7.07;;
8279;SDS011;8335;42.646;23.380;2022-12-20T09:52:03;13.30;;;7.30;;
8279;SDS011;8335;42.646;23.380;2022-12-20T09:54:43;8.90;;;6.07;;
8279;SDS011;8335;42.646;23.380;2022-12-20T09:57:21;10.80;;;6.70;;
8279;SDS011;8335;42.646;23.380;2022-12-20T09:59:55;14.83;;;7.23;;
8279;SDS011;8335;42.646;23.380;2022-12-20T10:02:23;13.40;;;7.00;;
8279;SDS011;8335;42.646;23.380;2022-12-20T10:04:52;11.30;;;6.60;;
8279;SDS011;8335;42.646;23.380;2022-12-20T10:07:22;12.87;;;7.87;;
8279;SDS011;8335;42.646;23.380;2022-12-20T10:10:05;11.47;;;6.80;;
8279;SDS011;8335;42.646;23.380;2022-12-20T10:12:54;12.57;;;7.43;;
8279;SDS011;8335;42.646;23.380;2022-12-20T10:15:32;10.93;;;6.47;;
8279;SDS011;8335;42.646;23.380;2022-12-20T10:18:19;15.67;;;7.87;;
8279;SDS011;8335;42.646;23.380;2022-12-20T10:20:58;12.97;;;6.77;;
8279;SDS011;8335;42.646;23.380;2022-12-20T10:23:32;12.23;;;6.93;;
8279;SDS011;8335;42.646;23.380;2022-12-20T10:26:07;15.43;;;7.17;;
8279;SDS011;8335;42.646;23.380;2022-12-20T10:28:35;11.53;;;6.87;;
8279;SDS011;8335;42.646;23.380;2022-12-20T10:31:04;10.90;;;6.73;;
8279;SDS011;8335;42.646;23.380;2022-12-20T10:33:33;12.97;;;6.47;;
8279;SDS011;8335;42.646;23.380;2022-12-20T10:36:21;10.37;;;6.53;;
8279;SDS011;8335;42.646;23.380;2022-12-20T10:38:51;11.37;;;6.10;;
8279;SDS011;8335;42.646;23.380;2022-12-20T10:41:20;10.23;;;5.80;;
8279;SDS011;8335;42.646;23.380;2022-12-20T10:43:50;10.33;;;6.17;;
8279;SDS011;8335;42.646;23.380;2022-12-20T10:46:20;13.30;;;6.70;;
8279;SDS011;8335;42.646;23.380;2022-12-20T10:48:48;13.07;;;7.37;;
8279;SDS011;8335;42.646;23.380;2022-12-20T10:51:16;11.50;;;6.80;;
8279;SDS011;8335;42.646;23.380;2022-12-20T10:53:53;11.27;;;6.40;;
8279;SDS011;8335;42.646;23.380;2022-12-20T10:56:23;11.00;;;6.50;;
8279;SDS011;8335;42.646;23.380;2022-12-20T10:58:54;15.30;;;7.97;;
8279;SDS011;8335;42.646;23.380;2022-12-20T11:01:24;14.37;;;6.97;;
8279;SDS011;8335;42.646;23.380;2022-12-20T11:03:54;14.47;;;6.40;;
8279;SDS011;8335;42.646;23.380;2022-12-20T11:06:24;16.00;;;7.43;;
8279;SDS011;8335;42.646;23.380;2022-12-20T11:11:57;13.17;;;6.27;;
8279;SDS011;8335;42.646;23.380;2022-12-20T11:14:26;12.67;;;6.70;;
8279;SDS011;8335;42.646;23.380;2022-12-20T11:16:53;13.13;;;6.83;;
8279;SDS011;8335;42.646;23.380;2022-12-20T11:19:30;13.27;;;7.27;;
8279;SDS011;8335;42.646;23.380;2022-12-20T11:22:22;10.87;;;6.63;;
8279;SDS011;8335;42.646;23.380;2022-12-20T11:25:00;12.30;;;6.50;;
8279;SDS011;8335;42.646;23.380;2022-12-20T11:27:39;12.17;;;6.40;;
8279;SDS011;8335;42.646;23.380;2022-12-20T11:30:16;9.87;;;5.70;;
8279;SDS011;8335;42.646;23.380;2022-12-20T11:32:50;10.03;;;5.87;;
8279;SDS011;8335;42.646;23.380;2022-12-20T11:35:31;16.23;;;6.73;;
8279;SDS011;8335;42.646;23.380;2022-12-20T11:38:09;11.03;;;6.23;;
8279;SDS011;8335;42.646;23.380;2022-12-20T11:40:45;15.27;;;6.30;;
8279;SDS011;8335;42.646;23.380;2022-12-20T11:43:24;11.70;;;6.17;;
8279;SDS011;8335;42.646;23.380;2022-12-20T11:46:10;13.43;;;6.23;;
8279;SDS011;8335;42.646;23.380;2022-12-20T11:48:53;13.10;;;6.20;;
8279;SDS011;8335;42.646;23.380;2022-12-20T11:51:46;11.23;;;5.77;;
8279;SDS011;8335;42.646;23.380;2022-12-20T11:54:16;9.20;;;5.10;;
8279;SDS011;8335;42.646;23.380;2022-12-20T11:56:49;10.73;;;4.77;;
8279;SDS011;8335;42.646;23.380;2022-12-20T11:59:21;9.53;;;5.60;;
8279;SDS011;8335;42.646;23.380;2022-12-20T12:02:01;11.17;;;5.13;;
8279;SDS011;8335;42.646;23.380;2022-12-20T12:04:36;8.77;;;4.97;;
8279;SDS011;8335;42.646;23.380;2022-12-20T12:07:07;8.33;;;4.83;;
8279;SDS011;8335;42.646;23.380;2022-12-20T12:09:39;9.43;;;5.00;;
8279;SDS011;8335;42.646;23.380;2022-12-20T12:12:17;7.50;;;4.77;;
8279;SDS011;8335;42.646;23.380;2022-12-20T12:14:50;6.17;;;4.20;;
8279;SDS011;8335;42.646;23.380;2022-12-20T12:17:25;6.97;;;4.57;;
8279;SDS011;8335;42.646;23.380;2022-12-20T12:20:13;10.60;;;5.30;;
8279;SDS011;8335;42.646;23.380;2022-12-20T12:22:49;7.90;;;5.00;;
8279;SDS011;8335;42.646;23.380;2022-12-20T12:25:18;12.80;;;4.47;;
8279;SDS011;8335;42.646;23.380;2022-12-20T12:27:47;7.53;;;4.10;;
8279;SDS011;8335;42.646;23.380;2022-12-20T12:30:14;11.90;;;5.00;;
8279;SDS011;8335;42.646;23.380;2022-12-20T12:32:42;7.90;;;4.37;;
8279;SDS011;8335;42.646;23.380;2022-12-20T12:35:24;10.03;;;4.70;;
8279;SDS011;8335;42.646;23.380;2022-12-20T12:38:23;8.03;;;4.63;;
8279;SDS011;8335;42.646;23.380;2022-12-20T12:41:13;7.93;;;5.00;;
8279;SDS011;8335;42.646;23.380;2022-12-20T12:44:05;8.20;;;4.67;;
8279;SDS011;8335;42.646;23.380;2022-12-20T12:46:58;8.27;;;4.67;;
8279;SDS011;8335;42.646;23.380;2022-12-20T12:49:29;8.53;;;4.90;;
8279;SDS011;8335;42.646;23.380;2022-12-20T12:51:58;8.90;;;5.30;;
8279;SDS011;8335;42.646;23.380;2022-12-20T12:54:27;10.53;;;5.70;;
8279;SDS011;8335;42.646;23.380;2022-12-20T12:56:58;10.57;;;5.50;;
8279;SDS011;8335;42.646;23.380;2022-12-20T13:05:32;7.23;;;4.87;;
8279;SDS011;8335;42.646;23.380;2022-12-20T13:08:00;9.63;;;5.10;;
8279;SDS011;8335;42.646;23.380;2022-12-20T13:13:24;8.37;;;5.17;;
8279;SDS011;8335;42.646;23.380;2022-12-20T13:16:03;10.20;;;4.90;;
8279;SDS011;8335;42.646;23.380;2022-12-20T13:21:36;8.37;;;4.93;;
8279;SDS011;8335;42.646;23.380;2022-12-20T13:27:21;9.47;;;5.10;;
8279;SDS011;8335;42.646;23.380;2022-12-20T13:30:14;8.60;;;5.43;;
8279;SDS011;8335;42.646;23.380;2022-12-20T13:33:02;10.10;;;5.30;;
8279;SDS011;8335;42.646;23.380;2022-12-20T13:36:04;6.63;;;4.50;;
8279;SDS011;8335;42.646;23.380;2022-12-20T13:38:58;7.20;;;4.57;;
8279;SDS011;8335;42.646;23.380;2022-12-20T13:41:30;8.47;;;5.23;;
8279;SDS011;8335;42.646;23.380;2022-12-20T13:44:02;7.00;;;4.30;;
8279;SDS011;8335;42.646;23.380;2022-12-20T13:46:49;8.43;;;5.17;;
8279;SDS011;8335;42.646;23.380;2022-12-20T13:49:23;9.00;;;5.60;;
8279;SDS011;8335;42.646;23.380;2022-12-20T13:54:56;9.33;;;4.60;;
8279;SDS011;8335;42.646;23.380;2022-12-20T13:57:28;7.20;;;4.40;;
8279;SDS011;8335;42.646;23.380;2022-12-20T13:59:58;9.20;;;4.57;;
8279;SDS011;8335;42.646;23.380;2022-12-20T14:02:28;7.67;;;4.50;;
8279;SDS011;8335;42.646;23.380;2022-12-20T14:05:01;9.33;;;4.90;;
8279;SDS011;8335;42.646;23.380;2022-12-20T14:07:30;7.67;;;4.40;;
8279;SDS011;8335;42.646;23.380;2022-12-20T14:09:58;8.40;;;4.63;;
8279;SDS011;8335;42.646;23.380;2022-12-20T14:12:27;8.10;;;4.60;;
8279;SDS011;8335;42.646;23.380;2022-12-20T14:14:55;9.47;;;5.30;;
8279;SDS011;8335;42.646;23.380;2022-12-20T14:17:22;11.50;;;5.90;;
8279;SDS011;8335;42.646;23.380;2022-12-20T14:20:13;11.73;;;6.03;;
8279;SDS011;8335;42.646;23.380;2022-12-20T14:22:42;10.50;;;6.00;;
8279;SDS011;8335;42.646;23.380;2022-12-20T14:25:22;9.87;;;5.40;;
8279;SDS011;8335;42.646;23.380;2022-12-20T14:27:54;9.43;;;4.93;;
8279;SDS011;8335;42.646;23.380;2022-12-20T14:30:25;10.77;;;4.90;;
8279;SDS011;8335;42.646;23.380;2022-12-20T14:32:54;8.20;;;4.67;;
8279;SDS011;8335;42.646;23.380;2022-12-20T14:35:23;9.63;;;4.70;;
8279;SDS011;8335;42.646;23.380;2022-12-20T14:37:51;9.20;;;5.57;;
8279;SDS011;8335;42.646;23.380;2022-12-20T14:40:19;11.77;;;5.90;;
8279;SDS011;8335;42.646;23.380;2022-12-20T14:42:47;8.93;;;5.50;;
8279;SDS011;8335;42.646;23.380;2022-12-20T14:45:18;13.47;;;6.07;;
8279;SDS011;8335;42.646;23.380;2022-12-20T14:47:53;11.23;;;6.23;;
8279;SDS011;8335;42.646;23.380;2022-12-20T14:50:26;14.57;;;6.57;;
8279;SDS011;8335;42.646;23.380;2022-12-20T14:52:58;12.07;;;6.70;;
8279;SDS011;8335;42.646;23.380;2022-12-20T14:55:29;10.67;;;6.77;;
8279;SDS011;8335;42.646;23.380;2022-12-20T14:57:58;13.20;;;6.87;;
8279;SDS011;8335;42.646;23.380;2022-12-20T15:00:26;11.93;;;6.60;;
8279;SDS011;8335;42.646;23.380;2022-12-20T15:03:00;10.27;;;6.07;;
8279;SDS011;8335;42.646;23.380;2022-12-20T15:08:19;10.70;;;6.23;;
8279;SDS011;8335;42.646;23.380;2022-12-20T15:10:51;10.70;;;6.67;;
8279;SDS011;8335;42.646;23.380;2022-12-20T15:13:21;15.93;;;6.60;;
8279;SDS011;8335;42.646;23.380;2022-12-20T15:15:51;12.47;;;6.23;;
8279;SDS011;8335;42.646;23.380;2022-12-20T15:18:18;10.73;;;6.23;;
8279;SDS011;8335;42.646;23.380;2022-12-20T15:20:48;11.83;;;6.23;;
8279;SDS011;8335;42.646;23.380;2022-12-20T15:23:21;13.37;;;6.47;;
8279;SDS011;8335;42.646;23.380;2022-12-20T15:25:48;12.10;;;7.17;;
8279;SDS011;8335;42.646;23.380;2022-12-20T15:28:15;12.73;;;6.67;;
8279;SDS011;8335;42.646;23.380;2022-12-20T15:30:45;13.20;;;6.30;;